sensor_id;sensor_type;location;lat;lon;timestamp;P1;durP1;ratioP1;P2;durP2;ratioP2
1128;SDS011;553;51.038;7.216;2023-07-31T00:01:33;11.00;;;5.70;;
1128;SDS011;553;51.038;7.216;2023-07-31T00:04:00;10.63;;;5.80;;
1128;SDS011;553;51.038;7.216;2023-07-31T00:06:27;7.40;;;5.10;;
1128;SDS011;553;51.038;7.216;2023-07-31T00:08:54;10.27;;;5.40;;
1128;SDS011;553;51.038;7.216;2023-07-31T00:11:21;8.53;;;5.03;;
1128;SDS011;553;51.038;7.216;2023-07-31T00:13:47;8.47;;;5.00;;
1128;SDS011;553;51.038;7.216;2023-07-31T00:16:14;7.43;;;4.60;;
1128;SDS011;553;51.038;7.216;2023-07-31T00:18:41;9.90;;;4.83;;
1128;SDS011;553;51.038;7.216;2023-07-31T00:21:08;7.97;;;4.80;;
1128;SDS011;553;51.038;7.216;2023-07-31T00:23:35;12.23;;;4.90;;
1128;SDS011;553;51.038;7.216;2023-07-31T00:26:01;11.73;;;5.33;;
1128;SDS011;553;51.038;7.216;2023-07-31T00:28:28;8.23;;;3.90;;
1128;SDS011;553;51.038;7.216;2023-07-31T00:30:55;8.00;;;4.80;;
1128;SDS011;553;51.038;7.216;2023-07-31T00:33:24;6.37;;;4.07;;
1128;SDS011;553;51.038;7.216;2023-07-31T00:35:51;13.10;;;5.47;;
1128;SDS011;553;51.038;7.216;2023-07-31T00:38:18;7.53;;;4.57;;
1128;SDS011;553;51.038;7.216;2023-07-31T00:40:45;9.00;;;4.37;;
1128;SDS011;553;51.038;7.216;2023-07-31T00:43:11;12.67;;;5.00;;
1128;SDS011;553;51.038;7.216;2023-07-31T00:45:39;7.23;;;5.10;;
1128;SDS011;553;51.038;7.216;2023-07-31T00:48:07;8.97;;;4.97;;
1128;SDS011;553;51.038;7.216;2023-07-31T00:50:34;8.90;;;4.77;;
1128;SDS011;553;51.038;7.216;2023-07-31T00:53:01;14.07;;;5.13;;
1128;SDS011;553;51.038;7.216;2023-07-31T00:55:29;10.93;;;4.90;;
1128;SDS011;553;51.038;7.216;2023-07-31T00:57:56;9.20;;;5.17;;
1128;SDS011;553;51.038;7.216;2023-07-31T01:00:23;10.80;;;5.57;;
1128;SDS011;553;51.038;7.216;2023-07-31T01:02:50;9.43;;;4.57;;
1128;SDS011;553;51.038;7.216;2023-07-31T01:05:23;10.43;;;4.97;;
1128;SDS011;553;51.038;7.216;2023-07-31T01:08:03;8.60;;;4.60;;
1128;SDS011;553;51.038;7.216;2023-07-31T01:10:36;11.27;;;5.40;;
1128;SDS011;553;51.038;7.216;2023-07-31T01:13:10;8.33;;;4.80;;
1128;SDS011;553;51.038;7.216;2023-07-31T01:15:37;7.23;;;4.77;;
1128;SDS011;553;51.038;7.216;2023-07-31T01:18:04;8.60;;;5.10;;
1128;SDS011;553;51.038;7.216;2023-07-31T01:20:32;8.50;;;4.63;;
1128;SDS011;553;51.038;7.216;2023-07-31T01:26:27;6.20;;;4.60;;
1128;SDS011;553;51.038;7.216;2023-07-31T01:31:45;7.73;;;3.80;;
1128;SDS011;553;51.038;7.216;2023-07-31T01:34:15;9.67;;;4.03;;
1128;SDS011;553;51.038;7.216;2023-07-31T01:36:44;8.40;;;3.93;;
1128;SDS011;553;51.038;7.216;2023-07-31T01:39:11;9.97;;;4.03;;
1128;SDS011;553;51.038;7.216;2023-07-31T01:41:38;8.40;;;3.97;;
1128;SDS011;553;51.038;7.216;2023-07-31T01:44:05;9.23;;;4.00;;
1128;SDS011;553;51.038;7.216;2023-07-31T01:46:32;8.43;;;4.67;;
1128;SDS011;553;51.038;7.216;2023-07-31T01:48:58;11.33;;;4.53;;
1128;SDS011;553;51.038;7.216;2023-07-31T01:51:25;6.03;;;3.63;;
1128;SDS011;553;51.038;7.216;2023-07-31T01:53:52;7.77;;;4.23;;
1128;SDS011;553;51.038;7.216;2023-07-31T01:56:19;4.80;;;3.40;;
1128;SDS011;553;51.038;7.216;2023-07-31T01:58:45;10.37;;;4.43;;
1128;SDS011;553;51.038;7.216;2023-07-31T02:01:12;7.67;;;4.20;;
1128;SDS011;553;51.038;7.216;2023-07-31T02:03:39;9.23;;;4.90;;
1128;SDS011;553;51.038;7.216;2023-07-31T02:06:06;8.93;;;4.33;;
1128;SDS011;553;51.038;7.216;2023-07-31T02:08:33;7.33;;;4.00;;
1128;SDS011;553;51.038;7.216;2023-07-31T02:10:59;7.20;;;4.00;;
1128;SDS011;553;51.038;7.216;2023-07-31T02:13:26;17.17;;;3.97;;
1128;SDS011;553;51.038;7.216;2023-07-31T02:15:53;7.00;;;3.33;;
1128;SDS011;553;51.038;7.216;2023-07-31T02:18:20;8.50;;;4.47;;
1128;SDS011;553;51.038;7.216;2023-07-31T02:20:51;9.90;;;4.20;;
1128;SDS011;553;51.038;7.216;2023-07-31T02:23:19;8.50;;;4.77;;
1128;SDS011;553;51.038;7.216;2023-07-31T02:25:45;10.03;;;4.10;;
1128;SDS011;553;51.038;7.216;2023-07-31T02:28:13;12.07;;;4.00;;
1128;SDS011;553;51.038;7.216;2023-07-31T02:30:39;8.13;;;3.87;;
1128;SDS011;553;51.038;7.216;2023-07-31T02:33:09;6.73;;;4.10;;
1128;SDS011;553;51.038;7.216;2023-07-31T02:35:36;7.27;;;3.87;;
1128;SDS011;553;51.038;7.216;2023-07-31T02:38:03;11.13;;;4.67;;
1128;SDS011;553;51.038;7.216;2023-07-31T02:40:30;10.97;;;4.40;;
1128;SDS011;553;51.038;7.216;2023-07-31T02:42:57;9.20;;;4.20;;
1128;SDS011;553;51.038;7.216;2023-07-31T02:45:23;7.00;;;3.60;;
1128;SDS011;553;51.038;7.216;2023-07-31T02:47:50;11.57;;;4.80;;
1128;SDS011;553;51.038;7.216;2023-07-31T02:50:17;6.47;;;3.80;;
1128;SDS011;553;51.038;7.216;2023-07-31T02:52:44;13.13;;;4.57;;
1128;SDS011;553;51.038;7.216;2023-07-31T02:55:11;9.03;;;4.00;;
1128;SDS011;553;51.038;7.216;2023-07-31T02:57:37;10.77;;;4.40;;
1128;SDS011;553;51.038;7.216;2023-07-31T03:00:04;8.97;;;4.40;;
1128;SDS011;553;51.038;7.216;2023-07-31T03:02:32;6.53;;;3.60;;
1128;SDS011;553;51.038;7.216;2023-07-31T03:04:59;9.70;;;4.00;;
1128;SDS011;553;51.038;7.216;2023-07-31T03:07:26;8.50;;;4.30;;
1128;SDS011;553;51.038;7.216;2023-07-31T03:09:53;12.10;;;4.23;;
1128;SDS011;553;51.038;7.216;2023-07-31T03:12:20;9.73;;;4.20;;
1128;SDS011;553;51.038;7.216;2023-07-31T03:14:47;10.87;;;5.10;;
1128;SDS011;553;51.038;7.216;2023-07-31T03:17:14;7.90;;;3.70;;
1128;SDS011;553;51.038;7.216;2023-07-31T03:19:41;5.60;;;4.00;;
1128;SDS011;553;51.038;7.216;2023-07-31T03:22:08;8.03;;;4.13;;
1128;SDS011;553;51.038;7.216;2023-07-31T03:24:35;8.20;;;4.10;;
1128;SDS011;553;51.038;7.216;2023-07-31T03:27:02;10.53;;;4.20;;
1128;SDS011;553;51.038;7.216;2023-07-31T03:29:28;11.47;;;5.43;;
1128;SDS011;553;51.038;7.216;2023-07-31T03:31:55;8.60;;;4.10;;
1128;SDS011;553;51.038;7.216;2023-07-31T03:34:22;10.10;;;4.43;;
1128;SDS011;553;51.038;7.216;2023-07-31T03:36:49;10.10;;;4.83;;
1128;SDS011;553;51.038;7.216;2023-07-31T03:39:16;10.00;;;4.20;;
1128;SDS011;553;51.038;7.216;2023-07-31T03:41:43;12.80;;;4.50;;
1128;SDS011;553;51.038;7.216;2023-07-31T03:44:09;10.63;;;4.90;;
1128;SDS011;553;51.038;7.216;2023-07-31T03:46:36;8.53;;;4.03;;
1128;SDS011;553;51.038;7.216;2023-07-31T03:49:03;12.87;;;4.77;;
1128;SDS011;553;51.038;7.216;2023-07-31T03:51:30;10.10;;;4.43;;
1128;SDS011;553;51.038;7.216;2023-07-31T03:53:57;9.63;;;4.60;;
1128;SDS011;553;51.038;7.216;2023-07-31T03:56:24;9.63;;;4.37;;
1128;SDS011;553;51.038;7.216;2023-07-31T03:58:51;9.23;;;4.47;;
1128;SDS011;553;51.038;7.216;2023-07-31T04:01:17;7.90;;;4.10;;
1128;SDS011;553;51.038;7.216;2023-07-31T04:03:45;7.50;;;4.50;;
1128;SDS011;553;51.038;7.216;2023-07-31T04:06:12;7.83;;;4.07;;
1128;SDS011;553;51.038;7.216;2023-07-31T04:08:39;7.93;;;4.77;;
1128;SDS011;553;51.038;7.216;2023-07-31T04:11:06;10.10;;;4.70;;
1128;SDS011;553;51.038;7.216;2023-07-31T04:13:33;9.50;;;5.13;;
1128;SDS011;553;51.038;7.216;2023-07-31T04:16:00;13.30;;;4.40;;
1128;SDS011;553;51.038;7.216;2023-07-31T04:18:26;11.97;;;4.60;;
1128;SDS011;553;51.038;7.216;2023-07-31T04:20:53;7.87;;;4.67;;
1128;SDS011;553;51.038;7.216;2023-07-31T04:23:20;9.03;;;5.10;;
1128;SDS011;553;51.038;7.216;2023-07-31T04:25:48;9.67;;;4.90;;
1128;SDS011;553;51.038;7.216;2023-07-31T04:28:15;6.20;;;3.90;;
1128;SDS011;553;51.038;7.216;2023-07-31T04:30:42;8.20;;;5.50;;
1128;SDS011;553;51.038;7.216;2023-07-31T04:33:08;8.23;;;4.63;;
1128;SDS011;553;51.038;7.216;2023-07-31T04:35:35;10.03;;;4.87;;
1128;SDS011;553;51.038;7.216;2023-07-31T04:38:02;8.77;;;5.20;;
1128;SDS011;553;51.038;7.216;2023-07-31T04:40:29;10.63;;;5.07;;
1128;SDS011;553;51.038;7.216;2023-07-31T04:42:55;10.60;;;5.00;;
1128;SDS011;553;51.038;7.216;2023-07-31T04:45:22;10.63;;;4.70;;
1128;SDS011;553;51.038;7.216;2023-07-31T04:47:49;9.20;;;5.33;;
1128;SDS011;553;51.038;7.216;2023-07-31T04:50:20;9.77;;;5.07;;
1128;SDS011;553;51.038;7.216;2023-07-31T04:52:47;12.27;;;6.23;;
1128;SDS011;553;51.038;7.216;2023-07-31T04:55:14;10.23;;;5.30;;
1128;SDS011;553;51.038;7.216;2023-07-31T04:57:40;15.37;;;6.10;;
1128;SDS011;553;51.038;7.216;2023-07-31T05:00:07;9.10;;;6.10;;
1128;SDS011;553;51.038;7.216;2023-07-31T05:02:34;12.73;;;5.50;;
1128;SDS011;553;51.038;7.216;2023-07-31T05:05:01;12.93;;;5.73;;
1128;SDS011;553;51.038;7.216;2023-07-31T05:07:28;10.20;;;6.03;;
1128;SDS011;553;51.038;7.216;2023-07-31T05:09:55;10.63;;;5.80;;
1128;SDS011;553;51.038;7.216;2023-07-31T05:12:24;13.03;;;5.90;;
1128;SDS011;553;51.038;7.216;2023-07-31T05:14:50;10.27;;;6.23;;
1128;SDS011;553;51.038;7.216;2023-07-31T05:17:17;8.67;;;5.70;;
1128;SDS011;553;51.038;7.216;2023-07-31T05:19:44;9.67;;;5.97;;
1128;SDS011;553;51.038;7.216;2023-07-31T05:22:11;12.37;;;5.57;;
1128;SDS011;553;51.038;7.216;2023-07-31T05:24:37;9.40;;;5.27;;
1128;SDS011;553;51.038;7.216;2023-07-31T05:27:04;7.40;;;5.23;;
1128;SDS011;553;51.038;7.216;2023-07-31T05:29:31;10.83;;;5.00;;
1128;SDS011;553;51.038;7.216;2023-07-31T05:31:58;12.40;;;5.67;;
1128;SDS011;553;51.038;7.216;2023-07-31T05:34:25;12.90;;;6.23;;
1128;SDS011;553;51.038;7.216;2023-07-31T05:36:52;8.17;;;5.10;;
1128;SDS011;553;51.038;7.216;2023-07-31T05:39:19;9.33;;;5.17;;
1128;SDS011;553;51.038;7.216;2023-07-31T05:41:46;9.50;;;5.37;;
1128;SDS011;553;51.038;7.216;2023-07-31T05:44:13;9.30;;;5.20;;
1128;SDS011;553;51.038;7.216;2023-07-31T05:46:40;10.80;;;5.30;;
1128;SDS011;553;51.038;7.216;2023-07-31T05:49:07;10.67;;;4.40;;
1128;SDS011;553;51.038;7.216;2023-07-31T05:51:34;7.23;;;4.40;;
1128;SDS011;553;51.038;7.216;2023-07-31T05:54:01;10.23;;;5.40;;
1128;SDS011;553;51.038;7.216;2023-07-31T05:56:28;9.07;;;5.20;;
1128;SDS011;553;51.038;7.216;2023-07-31T05:58:54;7.50;;;5.13;;
1128;SDS011;553;51.038;7.216;2023-07-31T06:01:23;7.23;;;4.90;;
1128;SDS011;553;51.038;7.216;2023-07-31T06:03:49;6.57;;;4.80;;
1128;SDS011;553;51.038;7.216;2023-07-31T06:06:16;8.40;;;4.80;;
1128;SDS011;553;51.038;7.216;2023-07-31T06:08:43;6.67;;;4.37;;
1128;SDS011;553;51.038;7.216;2023-07-31T06:11:10;6.07;;;4.20;;
1128;SDS011;553;51.038;7.216;2023-07-31T06:13:37;8.57;;;5.00;;
1128;SDS011;553;51.038;7.216;2023-07-31T06:16:03;9.90;;;4.30;;
1128;SDS011;553;51.038;7.216;2023-07-31T06:18:32;10.70;;;5.20;;
1128;SDS011;553;51.038;7.216;2023-07-31T06:20:59;9.60;;;4.80;;
1128;SDS011;553;51.038;7.216;2023-07-31T06:23:26;6.87;;;5.13;;
1128;SDS011;553;51.038;7.216;2023-07-31T06:25:53;9.27;;;4.50;;
1128;SDS011;553;51.038;7.216;2023-07-31T06:28:19;10.03;;;5.13;;
1128;SDS011;553;51.038;7.216;2023-07-31T06:30:46;14.03;;;5.53;;
1128;SDS011;553;51.038;7.216;2023-07-31T06:33:13;7.03;;;5.20;;
1128;SDS011;553;51.038;7.216;2023-07-31T06:35:41;8.53;;;5.40;;
1128;SDS011;553;51.038;7.216;2023-07-31T06:38:07;6.67;;;5.00;;
1128;SDS011;553;51.038;7.216;2023-07-31T06:40:34;6.60;;;4.20;;
1128;SDS011;553;51.038;7.216;2023-07-31T06:43:01;10.90;;;5.90;;
1128;SDS011;553;51.038;7.216;2023-07-31T06:45:34;8.73;;;5.27;;
1128;SDS011;553;51.038;7.216;2023-07-31T06:48:02;7.90;;;5.73;;
1128;SDS011;553;51.038;7.216;2023-07-31T06:50:33;7.70;;;5.03;;
1128;SDS011;553;51.038;7.216;2023-07-31T06:53:00;10.37;;;5.13;;
1128;SDS011;553;51.038;7.216;2023-07-31T06:55:26;7.30;;;4.83;;
1128;SDS011;553;51.038;7.216;2023-07-31T06:57:54;9.70;;;5.60;;
1128;SDS011;553;51.038;7.216;2023-07-31T07:00:22;9.57;;;4.90;;
1128;SDS011;553;51.038;7.216;2023-07-31T07:02:49;8.77;;;4.70;;
1128;SDS011;553;51.038;7.216;2023-07-31T07:05:16;9.73;;;4.90;;
1128;SDS011;553;51.038;7.216;2023-07-31T07:07:44;8.83;;;5.20;;
1128;SDS011;553;51.038;7.216;2023-07-31T07:10:10;6.60;;;5.07;;
1128;SDS011;553;51.038;7.216;2023-07-31T07:12:37;10.20;;;5.87;;
1128;SDS011;553;51.038;7.216;2023-07-31T07:15:04;7.63;;;4.80;;
1128;SDS011;553;51.038;7.216;2023-07-31T07:17:31;7.17;;;4.77;;
1128;SDS011;553;51.038;7.216;2023-07-31T07:19:58;7.90;;;4.63;;
1128;SDS011;553;51.038;7.216;2023-07-31T07:22:26;7.40;;;4.97;;
1128;SDS011;553;51.038;7.216;2023-07-31T07:24:53;6.70;;;4.73;;
1128;SDS011;553;51.038;7.216;2023-07-31T07:27:20;5.83;;;4.20;;
1128;SDS011;553;51.038;7.216;2023-07-31T07:29:49;6.67;;;4.80;;
1128;SDS011;553;51.038;7.216;2023-07-31T07:32:17;7.20;;;4.93;;
1128;SDS011;553;51.038;7.216;2023-07-31T07:34:44;9.30;;;5.43;;
1128;SDS011;553;51.038;7.216;2023-07-31T07:37:11;8.93;;;5.00;;
1128;SDS011;553;51.038;7.216;2023-07-31T07:39:38;9.07;;;5.03;;
1128;SDS011;553;51.038;7.216;2023-07-31T07:42:04;8.60;;;5.30;;
1128;SDS011;553;51.038;7.216;2023-07-31T07:44:31;7.17;;;5.10;;
1128;SDS011;553;51.038;7.216;2023-07-31T07:46:58;7.10;;;4.80;;
1128;SDS011;553;51.038;7.216;2023-07-31T07:49:25;8.53;;;5.13;;
1128;SDS011;553;51.038;7.216;2023-07-31T07:51:52;8.33;;;4.43;;
1128;SDS011;553;51.038;7.216;2023-07-31T07:54:18;7.83;;;4.80;;
1128;SDS011;553;51.038;7.216;2023-07-31T07:56:47;8.53;;;5.80;;
1128;SDS011;553;51.038;7.216;2023-07-31T07:59:14;10.20;;;5.47;;
1128;SDS011;553;51.038;7.216;2023-07-31T08:01:40;8.50;;;5.07;;
1128;SDS011;553;51.038;7.216;2023-07-31T08:04:07;9.57;;;5.83;;
1128;SDS011;553;51.038;7.216;2023-07-31T08:06:34;8.73;;;5.33;;
1128;SDS011;553;51.038;7.216;2023-07-31T08:09:01;10.47;;;5.93;;
1128;SDS011;553;51.038;7.216;2023-07-31T08:11:32;7.73;;;4.70;;
1128;SDS011;553;51.038;7.216;2023-07-31T08:13:59;8.17;;;6.10;;
1128;SDS011;553;51.038;7.216;2023-07-31T08:16:26;10.07;;;5.60;;
1128;SDS011;553;51.038;7.216;2023-07-31T08:18:53;10.77;;;5.30;;
1128;SDS011;553;51.038;7.216;2023-07-31T08:21:20;10.37;;;6.10;;
1128;SDS011;553;51.038;7.216;2023-07-31T08:23:48;10.30;;;6.10;;
1128;SDS011;553;51.038;7.216;2023-07-31T08:26:15;8.53;;;5.43;;
1128;SDS011;553;51.038;7.216;2023-07-31T08:28:42;7.53;;;5.60;;
1128;SDS011;553;51.038;7.216;2023-07-31T08:31:09;9.83;;;5.37;;
1128;SDS011;553;51.038;7.216;2023-07-31T08:33:37;6.77;;;4.70;;
1128;SDS011;553;51.038;7.216;2023-07-31T08:36:04;8.43;;;4.23;;
1128;SDS011;553;51.038;7.216;2023-07-31T08:38:32;6.23;;;4.30;;
1128;SDS011;553;51.038;7.216;2023-07-31T08:40:59;8.60;;;5.10;;
1128;SDS011;553;51.038;7.216;2023-07-31T08:43:26;6.40;;;4.20;;
1128;SDS011;553;51.038;7.216;2023-07-31T08:45:53;6.13;;;4.20;;
1128;SDS011;553;51.038;7.216;2023-07-31T08:48:21;7.97;;;4.10;;
1128;SDS011;553;51.038;7.216;2023-07-31T08:50:51;7.20;;;4.10;;
1128;SDS011;553;51.038;7.216;2023-07-31T08:53:19;7.63;;;4.80;;
1128;SDS011;553;51.038;7.216;2023-07-31T08:55:47;6.20;;;4.67;;
1128;SDS011;553;51.038;7.216;2023-07-31T08:58:15;6.77;;;4.47;;
1128;SDS011;553;51.038;7.216;2023-07-31T09:00:45;10.23;;;5.20;;
1128;SDS011;553;51.038;7.216;2023-07-31T09:03:13;9.63;;;5.20;;
1128;SDS011;553;51.038;7.216;2023-07-31T09:05:43;10.70;;;4.83;;
1128;SDS011;553;51.038;7.216;2023-07-31T09:08:12;5.43;;;4.13;;
1128;SDS011;553;51.038;7.216;2023-07-31T09:10:40;5.43;;;4.07;;
1128;SDS011;553;51.038;7.216;2023-07-31T09:13:09;7.07;;;3.87;;
1128;SDS011;553;51.038;7.216;2023-07-31T09:15:38;5.60;;;4.30;;
1128;SDS011;553;51.038;7.216;2023-07-31T09:18:06;5.83;;;4.57;;
1128;SDS011;553;51.038;7.216;2023-07-31T09:20:34;7.30;;;4.20;;
1128;SDS011;553;51.038;7.216;2023-07-31T09:23:11;7.33;;;4.30;;
1128;SDS011;553;51.038;7.216;2023-07-31T09:25:40;9.07;;;5.17;;
1128;SDS011;553;51.038;7.216;2023-07-31T09:28:10;9.80;;;4.60;;
1128;SDS011;553;51.038;7.216;2023-07-31T09:30:48;5.60;;;4.13;;
1128;SDS011;553;51.038;7.216;2023-07-31T09:33:17;9.17;;;5.27;;
1128;SDS011;553;51.038;7.216;2023-07-31T09:35:45;10.60;;;4.97;;
1128;SDS011;553;51.038;7.216;2023-07-31T09:38:14;9.53;;;5.07;;
1128;SDS011;553;51.038;7.216;2023-07-31T09:40:42;10.00;;;4.80;;
1128;SDS011;553;51.038;7.216;2023-07-31T09:43:19;6.73;;;4.70;;
1128;SDS011;553;51.038;7.216;2023-07-31T09:45:46;8.27;;;4.37;;
1128;SDS011;553;51.038;7.216;2023-07-31T09:48:15;7.33;;;4.47;;
1128;SDS011;553;51.038;7.216;2023-07-31T09:50:46;7.47;;;4.50;;
1128;SDS011;553;51.038;7.216;2023-07-31T09:53:15;5.30;;;4.27;;
1128;SDS011;553;51.038;7.216;2023-07-31T09:55:43;8.57;;;4.93;;
1128;SDS011;553;51.038;7.216;2023-07-31T09:58:10;7.90;;;4.40;;
1128;SDS011;553;51.038;7.216;2023-07-31T10:00:38;6.27;;;4.00;;
1128;SDS011;553;51.038;7.216;2023-07-31T10:03:09;7.83;;;4.10;;
1128;SDS011;553;51.038;7.216;2023-07-31T10:08:17;5.13;;;3.83;;
1128;SDS011;553;51.038;7.216;2023-07-31T10:10:46;19.13;;;4.77;;
1128;SDS011;553;51.038;7.216;2023-07-31T10:13:13;7.87;;;5.27;;
1128;SDS011;553;51.038;7.216;2023-07-31T10:15:40;7.20;;;5.10;;
1128;SDS011;553;51.038;7.216;2023-07-31T10:18:09;7.33;;;4.80;;
1128;SDS011;553;51.038;7.216;2023-07-31T10:20:37;8.83;;;4.97;;
1128;SDS011;553;51.038;7.216;2023-07-31T10:23:04;6.13;;;4.50;;
1128;SDS011;553;51.038;7.216;2023-07-31T10:25:32;5.50;;;4.03;;
1128;SDS011;553;51.038;7.216;2023-07-31T10:28:00;8.43;;;5.40;;
1128;SDS011;553;51.038;7.216;2023-07-31T10:30:28;8.33;;;4.97;;
1128;SDS011;553;51.038;7.216;2023-07-31T10:32:58;7.03;;;5.20;;
1128;SDS011;553;51.038;7.216;2023-07-31T10:36:20;11.53;;;5.70;;
1128;SDS011;553;51.038;7.216;2023-07-31T10:38:49;11.70;;;5.93;;
1128;SDS011;553;51.038;7.216;2023-07-31T10:41:31;8.57;;;5.40;;
1128;SDS011;553;51.038;7.216;2023-07-31T10:43:59;6.77;;;4.93;;
1128;SDS011;553;51.038;7.216;2023-07-31T10:46:27;9.70;;;5.20;;
1128;SDS011;553;51.038;7.216;2023-07-31T10:48:58;6.80;;;4.77;;
1128;SDS011;553;51.038;7.216;2023-07-31T10:51:34;12.73;;;5.77;;
1128;SDS011;553;51.038;7.216;2023-07-31T10:54:11;6.87;;;4.90;;
1128;SDS011;553;51.038;7.216;2023-07-31T10:56:39;6.20;;;4.67;;
1128;SDS011;553;51.038;7.216;2023-07-31T10:59:06;6.00;;;4.77;;
1128;SDS011;553;51.038;7.216;2023-07-31T11:04:22;8.60;;;5.07;;
1128;SDS011;553;51.038;7.216;2023-07-31T11:06:55;7.93;;;5.10;;
1128;SDS011;553;51.038;7.216;2023-07-31T11:09:24;10.57;;;5.40;;
1128;SDS011;553;51.038;7.216;2023-07-31T11:11:59;6.90;;;5.33;;
1128;SDS011;553;51.038;7.216;2023-07-31T11:14:26;7.80;;;5.00;;
1128;SDS011;553;51.038;7.216;2023-07-31T11:16:52;9.00;;;5.00;;
1128;SDS011;553;51.038;7.216;2023-07-31T11:19:23;5.50;;;4.00;;
1128;SDS011;553;51.038;7.216;2023-07-31T11:21:51;7.50;;;5.17;;
1128;SDS011;553;51.038;7.216;2023-07-31T11:24:19;6.80;;;4.33;;
1128;SDS011;553;51.038;7.216;2023-07-31T11:26:52;5.83;;;4.50;;
1128;SDS011;553;51.038;7.216;2023-07-31T11:29:20;7.47;;;4.83;;
1128;SDS011;553;51.038;7.216;2023-07-31T11:31:47;7.93;;;5.00;;
1128;SDS011;553;51.038;7.216;2023-07-31T11:34:15;6.17;;;4.23;;
1128;SDS011;553;51.038;7.216;2023-07-31T11:36:52;13.20;;;5.53;;
1128;SDS011;553;51.038;7.216;2023-07-31T11:39:21;7.37;;;4.90;;
1128;SDS011;553;51.038;7.216;2023-07-31T11:41:48;10.10;;;5.83;;
1128;SDS011;553;51.038;7.216;2023-07-31T11:44:14;10.00;;;5.10;;
1128;SDS011;553;51.038;7.216;2023-07-31T11:46:52;6.60;;;4.47;;
1128;SDS011;553;51.038;7.216;2023-07-31T11:49:22;8.90;;;5.10;;
1128;SDS011;553;51.038;7.216;2023-07-31T11:51:49;5.40;;;4.40;;
1128;SDS011;553;51.038;7.216;2023-07-31T11:54:16;6.93;;;4.50;;
1128;SDS011;553;51.038;7.216;2023-07-31T11:56:43;4.40;;;3.73;;
1128;SDS011;553;51.038;7.216;2023-07-31T11:59:10;5.03;;;3.70;;
1128;SDS011;553;51.038;7.216;2023-07-31T12:01:39;5.60;;;3.40;;
1128;SDS011;553;51.038;7.216;2023-07-31T12:04:06;6.10;;;3.53;;
1128;SDS011;553;51.038;7.216;2023-07-31T12:06:33;5.50;;;3.37;;
1128;SDS011;553;51.038;7.216;2023-07-31T12:09:03;5.80;;;2.87;;
1128;SDS011;553;51.038;7.216;2023-07-31T12:11:31;3.90;;;3.07;;
1128;SDS011;553;51.038;7.216;2023-07-31T12:14:08;3.10;;;2.30;;
1128;SDS011;553;51.038;7.216;2023-07-31T12:16:55;3.60;;;3.00;;
1128;SDS011;553;51.038;7.216;2023-07-31T12:19:23;4.53;;;3.07;;
1128;SDS011;553;51.038;7.216;2023-07-31T12:21:54;3.93;;;2.13;;
1128;SDS011;553;51.038;7.216;2023-07-31T12:24:21;4.13;;;2.00;;
1128;SDS011;553;51.038;7.216;2023-07-31T12:26:48;3.40;;;2.10;;
1128;SDS011;553;51.038;7.216;2023-07-31T12:29:15;3.60;;;2.30;;
1128;SDS011;553;51.038;7.216;2023-07-31T12:31:42;6.23;;;2.30;;
1128;SDS011;553;51.038;7.216;2023-07-31T12:34:15;3.97;;;1.90;;
1128;SDS011;553;51.038;7.216;2023-07-31T12:36:44;6.80;;;2.00;;
1128;SDS011;553;51.038;7.216;2023-07-31T12:39:10;3.40;;;1.77;;
1128;SDS011;553;51.038;7.216;2023-07-31T12:41:38;3.23;;;1.90;;
1128;SDS011;553;51.038;7.216;2023-07-31T12:44:05;4.30;;;1.30;;
1128;SDS011;553;51.038;7.216;2023-07-31T12:46:32;2.40;;;1.33;;
1128;SDS011;553;51.038;7.216;2023-07-31T12:48:59;3.97;;;1.70;;
1128;SDS011;553;51.038;7.216;2023-07-31T12:51:26;1.73;;;1.17;;
1128;SDS011;553;51.038;7.216;2023-07-31T12:53:53;1.90;;;1.40;;
1128;SDS011;553;51.038;7.216;2023-07-31T12:56:19;2.10;;;1.67;;
1128;SDS011;553;51.038;7.216;2023-07-31T12:58:47;2.90;;;1.50;;
1128;SDS011;553;51.038;7.216;2023-07-31T13:01:14;3.43;;;1.60;;
1128;SDS011;553;51.038;7.216;2023-07-31T13:03:40;1.97;;;1.43;;
1128;SDS011;553;51.038;7.216;2023-07-31T13:06:07;3.00;;;2.10;;
1128;SDS011;553;51.038;7.216;2023-07-31T13:08:34;1.57;;;1.47;;
1128;SDS011;553;51.038;7.216;2023-07-31T13:11:01;1.90;;;1.63;;
1128;SDS011;553;51.038;7.216;2023-07-31T13:13:27;1.90;;;1.70;;
1128;SDS011;553;51.038;7.216;2023-07-31T13:15:56;4.10;;;2.10;;
1128;SDS011;553;51.038;7.216;2023-07-31T13:18:23;2.80;;;1.87;;
1128;SDS011;553;51.038;7.216;2023-07-31T13:20:50;2.03;;;1.83;;
1128;SDS011;553;51.038;7.216;2023-07-31T13:23:16;4.30;;;2.33;;
1128;SDS011;553;51.038;7.216;2023-07-31T13:25:43;2.40;;;2.20;;
1128;SDS011;553;51.038;7.216;2023-07-31T13:28:10;2.70;;;2.47;;
1128;SDS011;553;51.038;7.216;2023-07-31T13:30:37;2.90;;;2.20;;
1128;SDS011;553;51.038;7.216;2023-07-31T13:33:03;3.10;;;1.87;;
1128;SDS011;553;51.038;7.216;2023-07-31T13:35:30;3.07;;;2.47;;
1128;SDS011;553;51.038;7.216;2023-07-31T13:37:57;2.97;;;2.60;;
1128;SDS011;553;51.038;7.216;2023-07-31T13:40:24;3.87;;;2.50;;
1128;SDS011;553;51.038;7.216;2023-07-31T13:42:51;3.40;;;3.10;;
1128;SDS011;553;51.038;7.216;2023-07-31T13:45:18;6.60;;;2.90;;
1128;SDS011;553;51.038;7.216;2023-07-31T13:47:45;3.47;;;2.50;;
1128;SDS011;553;51.038;7.216;2023-07-31T13:50:12;3.63;;;2.80;;
1128;SDS011;553;51.038;7.216;2023-07-31T13:52:38;4.33;;;3.37;;
1128;SDS011;553;51.038;7.216;2023-07-31T13:55:05;5.90;;;3.40;;
1128;SDS011;553;51.038;7.216;2023-07-31T13:57:33;5.93;;;3.40;;
1128;SDS011;553;51.038;7.216;2023-07-31T14:00:00;2.97;;;2.20;;
1128;SDS011;553;51.038;7.216;2023-07-31T14:02:27;3.87;;;2.60;;
1128;SDS011;553;51.038;7.216;2023-07-31T14:04:54;4.07;;;3.17;;
1128;SDS011;553;51.038;7.216;2023-07-31T14:07:20;3.97;;;3.00;;
1128;SDS011;553;51.038;7.216;2023-07-31T14:09:47;3.67;;;3.37;;
1128;SDS011;553;51.038;7.216;2023-07-31T14:12:14;5.10;;;3.07;;
1128;SDS011;553;51.038;7.216;2023-07-31T14:15:00;3.90;;;3.30;;
1128;SDS011;553;51.038;7.216;2023-07-31T14:17:27;5.67;;;3.33;;
1128;SDS011;553;51.038;7.216;2023-07-31T14:19:54;7.20;;;3.90;;
1128;SDS011;553;51.038;7.216;2023-07-31T14:22:29;3.80;;;3.30;;
1128;SDS011;553;51.038;7.216;2023-07-31T14:24:56;4.63;;;3.70;;
1128;SDS011;553;51.038;7.216;2023-07-31T14:27:23;5.20;;;3.40;;
1128;SDS011;553;51.038;7.216;2023-07-31T14:29:50;4.30;;;3.23;;
1128;SDS011;553;51.038;7.216;2023-07-31T14:32:16;4.90;;;3.20;;
1128;SDS011;553;51.038;7.216;2023-07-31T14:34:43;4.50;;;3.13;;
1128;SDS011;553;51.038;7.216;2023-07-31T14:37:10;5.13;;;3.07;;
1128;SDS011;553;51.038;7.216;2023-07-31T14:39:37;4.83;;;3.40;;
1128;SDS011;553;51.038;7.216;2023-07-31T14:42:06;3.87;;;3.20;;
1128;SDS011;553;51.038;7.216;2023-07-31T14:44:33;3.80;;;3.30;;
1128;SDS011;553;51.038;7.216;2023-07-31T14:47:00;6.37;;;2.93;;
1128;SDS011;553;51.038;7.216;2023-07-31T14:49:27;3.10;;;2.80;;
1128;SDS011;553;51.038;7.216;2023-07-31T14:51:54;4.00;;;2.77;;
1128;SDS011;553;51.038;7.216;2023-07-31T14:54:21;4.60;;;3.10;;
1128;SDS011;553;51.038;7.216;2023-07-31T14:56:48;4.53;;;3.27;;
1128;SDS011;553;51.038;7.216;2023-07-31T14:59:14;3.00;;;2.70;;
1128;SDS011;553;51.038;7.216;2023-07-31T15:01:41;5.40;;;3.10;;
1128;SDS011;553;51.038;7.216;2023-07-31T15:04:08;5.73;;;3.17;;
1128;SDS011;553;51.038;7.216;2023-07-31T15:06:35;6.07;;;3.87;;
1128;SDS011;553;51.038;7.216;2023-07-31T15:09:02;4.87;;;3.33;;
1128;SDS011;553;51.038;7.216;2023-07-31T15:11:29;7.30;;;3.20;;
1128;SDS011;553;51.038;7.216;2023-07-31T15:13:56;3.90;;;3.37;;
1128;SDS011;553;51.038;7.216;2023-07-31T15:16:22;3.93;;;2.83;;
1128;SDS011;553;51.038;7.216;2023-07-31T15:18:49;6.27;;;3.03;;
1128;SDS011;553;51.038;7.216;2023-07-31T15:21:16;3.90;;;3.40;;
1128;SDS011;553;51.038;7.216;2023-07-31T15:23:43;4.80;;;3.63;;
1128;SDS011;553;51.038;7.216;2023-07-31T15:26:09;5.87;;;3.10;;
1128;SDS011;553;51.038;7.216;2023-07-31T15:28:36;5.50;;;3.63;;
1128;SDS011;553;51.038;7.216;2023-07-31T15:31:04;5.13;;;3.20;;
1128;SDS011;553;51.038;7.216;2023-07-31T15:33:31;3.50;;;3.17;;
1128;SDS011;553;51.038;7.216;2023-07-31T15:35:58;3.30;;;3.00;;
1128;SDS011;553;51.038;7.216;2023-07-31T15:38:25;4.67;;;3.17;;
1128;SDS011;553;51.038;7.216;2023-07-31T15:40:51;5.03;;;2.93;;
1128;SDS011;553;51.038;7.216;2023-07-31T15:43:19;4.10;;;3.60;;